ELLX

Luxembourg-Findel International Airport

Luxembourg, Luxembourg
METAR ELLX 230950Z 26011KT 230V290 CAVOK 07/04 Q1029 NOSIG
Observed Flight Rules
Oct-23 @ 09:50 UTC (35 minutes ago) Visual Flight Rules
Wind Visibility Clouds
260° at 11 knots 10,000+ meters
  • Clear skies
Temperatures Readings
Current 7°C / 45°F
Dewpoint 4°C / 39°F
Humidity 81%
Altimeter 30.38" Hg
Pressure 1029 hPa
Elevation 379
METAR ELLX 230950Z 26011KT 230V290 CAVOK 07/04 Q1029 NOSIG
Observed Flight Rules
Oct-23 @ 09:50 UTC
(35 minutes ago)
VFR
Wind Visibility
260° at 11 knots 10,000+ meters
Clouds
  • Clear skies
Temperature Dewpoint
7°C / 45°F 4°C / 39°F
Humidity Altimeter Pressure
81% 30.38" Hg 1029 hPa